createdAt,value
2023-03-04T00:02:27.490Z,-3.12
2023-03-04T00:05:31.375Z,-3.16
2023-03-04T00:08:35.204Z,-3.23
2023-03-04T00:11:38.687Z,-3.29
2023-03-04T00:14:42.097Z,-3.20
2023-03-04T00:17:46.330Z,-3.30
2023-03-04T00:20:52.681Z,-3.30
2023-03-04T00:23:56.577Z,-3.31
2023-03-04T00:26:59.800Z,-3.39
2023-03-04T00:30:03.554Z,-3.41
2023-03-04T00:33:06.624Z,-3.43
2023-03-04T00:36:11.676Z,-3.53
2023-03-04T00:39:15.451Z,-3.56
2023-03-04T00:42:18.709Z,-3.65
2023-03-04T00:45:21.867Z,-3.62
2023-03-04T00:48:26.013Z,-3.63
2023-03-04T00:51:29.352Z,-3.60
2023-03-04T00:54:33.205Z,-3.64
2023-03-04T00:57:36.256Z,-3.64
2023-03-04T01:00:39.927Z,-3.53
2023-03-04T01:03:43.273Z,-3.62
2023-03-04T01:06:46.743Z,-3.67
2023-03-04T01:09:49.873Z,-3.74
2023-03-04T01:12:53.238Z,-3.68
2023-03-04T01:15:56.341Z,-3.61
2023-03-04T01:19:00.230Z,-3.65
2023-03-04T01:22:05.115Z,-3.68
2023-03-04T01:25:10.940Z,-3.81
2023-03-04T01:28:14.296Z,-3.85
2023-03-04T01:31:18.386Z,-3.80
2023-03-04T01:34:21.793Z,-3.94
2023-03-04T01:37:25.282Z,-3.95
2023-03-04T01:40:28.497Z,-4.03
2023-03-04T01:43:35.685Z,-4.00
2023-03-04T01:46:42.716Z,-4.03
2023-03-04T01:49:51.440Z,-4.01
2023-03-04T01:52:54.664Z,-4.12
2023-03-04T01:56:02.414Z,-4.16
2023-03-04T01:59:08.100Z,-4.23
2023-03-04T02:02:13.361Z,-4.28
2023-03-04T02:05:17.100Z,-4.41
2023-03-04T02:08:23.116Z,-4.40
2023-03-04T02:11:27.118Z,-4.41
2023-03-04T02:14:31.402Z,-4.36
2023-03-04T02:17:34.753Z,-4.36
2023-03-04T02:21:06.146Z,-4.28
2023-03-04T02:24:15.612Z,-4.29
2023-03-04T02:27:21.887Z,-4.29
2023-03-04T02:30:25.788Z,-4.36
2023-03-04T02:33:29.278Z,-4.36
2023-03-04T02:36:33.333Z,-4.27
2023-03-04T02:39:42.380Z,-4.22
2023-03-04T02:42:47.550Z,-4.28
2023-03-04T02:45:51.684Z,-4.32
2023-03-04T02:48:54.972Z,-4.46
2023-03-04T02:52:17.576Z,-4.52
2023-03-04T02:55:21.109Z,-4.59
2023-03-04T02:58:26.699Z,-4.65
2023-03-04T03:01:29.988Z,-4.74
2023-03-04T03:04:34.716Z,-4.75
2023-03-04T03:07:38.394Z,-4.79
2023-03-04T03:10:41.907Z,-4.86
2023-03-04T03:13:45.115Z,-5.01
2023-03-04T03:16:49.167Z,-4.95
2023-03-04T03:19:52.428Z,-4.97
2023-03-04T03:22:56.278Z,-5.03
2023-03-04T03:25:59.501Z,-5.07
2023-03-04T03:29:03.929Z,-5.11
2023-03-04T03:32:07.508Z,-5.11
2023-03-04T03:35:11.546Z,-5.14
2023-03-04T03:38:16.046Z,-5.19
2023-03-04T03:41:19.420Z,-5.12
2023-03-04T03:44:23.822Z,-5.14
2023-03-04T03:47:27.903Z,-5.12
2023-03-04T03:50:31.748Z,-5.10
2023-03-04T03:53:35.414Z,-5.17
2023-03-04T03:56:38.601Z,-5.10
2023-03-04T03:59:42.142Z,-5.12
2023-03-04T04:02:45.316Z,-5.15
2023-03-04T04:05:48.742Z,-5.15
2023-03-04T04:08:52.386Z,-5.19
2023-03-04T04:11:57.004Z,-5.35
2023-03-04T04:15:03.269Z,-5.43
2023-03-04T04:18:07.652Z,-5.45
2023-03-04T04:21:10.961Z,-5.40
2023-03-04T04:24:14.376Z,-5.45
2023-03-04T04:27:17.567Z,-5.50
2023-03-04T04:30:21.277Z,-5.51
2023-03-04T04:33:24.323Z,-5.53
2023-03-04T04:36:28.751Z,-5.51
2023-03-04T04:39:31.900Z,-5.56
2023-03-04T04:42:36.654Z,-5.46
2023-03-04T04:45:39.842Z,-5.50
2023-03-04T04:48:43.212Z,-5.55
2023-03-04T04:51:46.334Z,-5.55
2023-03-04T04:54:49.805Z,-5.55
2023-03-04T04:57:52.947Z,-5.61
2023-03-04T05:00:58.317Z,-5.59
2023-03-04T05:04:01.790Z,-5.76
2023-03-04T05:07:05.269Z,-5.82
2023-03-04T05:10:09.860Z,-5.92
2023-03-04T05:13:13.331Z,-5.90
2023-03-04T05:16:18.028Z,-5.83
2023-03-04T05:19:22.236Z,-5.71
2023-03-04T05:22:25.392Z,-5.71
2023-03-04T05:25:28.963Z,-5.73
2023-03-04T05:28:33.503Z,-5.71
2023-03-04T05:31:36.875Z,-5.67
2023-03-04T05:34:40.750Z,-5.59
2023-03-04T05:37:44.373Z,-5.66
2023-03-04T05:40:48.064Z,-5.64
2023-03-04T05:43:51.672Z,-5.49
2023-03-04T05:46:54.718Z,-5.51
2023-03-04T05:49:58.308Z,-5.44
2023-03-04T05:53:01.516Z,-5.35
2023-03-04T05:56:13.773Z,-5.23
2023-03-04T05:59:20.688Z,-5.23
2023-03-04T06:02:24.320Z,-5.09
2023-03-04T06:05:27.610Z,-4.98
2023-03-04T06:08:30.582Z,-4.85
2023-03-04T06:11:35.960Z,-4.76
2023-03-04T06:14:39.228Z,-4.60
2023-03-04T06:17:42.839Z,-4.29
2023-03-04T06:20:45.718Z,-4.01
2023-03-04T06:23:49.424Z,-3.79
2023-03-04T06:26:52.709Z,-3.36
2023-03-04T06:29:56.639Z,-2.92
2023-03-04T06:33:00.856Z,-2.34
2023-03-04T06:36:04.725Z,-2.07
2023-03-04T06:39:08.879Z,-1.76
2023-03-04T06:42:14.804Z,-1.38
2023-03-04T06:45:19.189Z,-1.00
2023-03-04T06:48:22.614Z,-0.44
2023-03-04T06:51:25.792Z,-0.09
2023-03-04T06:54:29.612Z,0.33
2023-03-04T06:57:32.670Z,0.80
2023-03-04T07:00:36.250Z,1.22
2023-03-04T07:03:39.721Z,1.56
2023-03-04T07:06:43.247Z,1.92
2023-03-04T07:09:46.594Z,2.20
2023-03-04T07:12:49.913Z,2.59
2023-03-04T07:15:53.535Z,2.61
2023-03-04T07:18:56.947Z,2.90
2023-03-04T07:22:00.457Z,3.22
2023-03-04T07:25:05.545Z,3.54
2023-03-04T07:28:08.782Z,3.73
2023-03-04T07:31:18.757Z,4.02
2023-03-04T07:34:23.021Z,4.31
2023-03-04T07:37:26.451Z,4.50
2023-03-04T07:40:30.059Z,4.62
2023-03-04T07:43:33.939Z,4.77
2023-03-04T07:46:37.084Z,4.55
2023-03-04T07:49:40.642Z,4.80
2023-03-04T07:52:46.403Z,4.98
2023-03-04T07:55:49.811Z,5.17
2023-03-04T07:58:53.870Z,5.48
2023-03-04T08:01:57.409Z,5.65
2023-03-04T08:05:01.028Z,6.04
2023-03-04T08:08:04.290Z,5.75
2023-03-04T08:11:11.014Z,5.81
2023-03-04T08:14:14.985Z,5.13
2023-03-04T08:17:18.770Z,5.09
2023-03-04T08:20:22.093Z,5.38
2023-03-04T08:23:25.630Z,6.09
2023-03-04T08:26:34.061Z,6.56
2023-03-04T08:29:37.733Z,7.09
2023-03-04T08:32:41.116Z,7.45
2023-03-04T08:35:44.839Z,7.84
2023-03-04T08:38:47.918Z,7.72
2023-03-04T08:41:52.491Z,7.38
2023-03-04T08:44:56.858Z,7.36
2023-03-04T08:48:00.542Z,7.54
2023-03-04T08:51:12.222Z,7.81
2023-03-04T08:54:15.881Z,8.19
2023-03-04T08:57:19.514Z,8.21
2023-03-04T09:00:23.961Z,8.11
2023-03-04T09:03:27.786Z,8.18
2023-03-04T09:06:31.217Z,8.34
2023-03-04T09:09:34.549Z,8.48
2023-03-04T09:12:38.069Z,8.51
2023-03-04T09:15:46.993Z,9.04
2023-03-04T09:18:50.724Z,8.75
2023-03-04T09:21:55.978Z,8.49
2023-03-04T09:24:59.584Z,8.68
2023-03-04T09:28:10.844Z,8.68
2023-03-04T09:31:15.575Z,8.94
2023-03-04T09:34:19.091Z,9.07
2023-03-04T09:37:22.548Z,9.13
2023-03-04T09:40:32.718Z,8.86
2023-03-04T09:43:39.373Z,8.85
2023-03-04T09:46:44.540Z,8.94
2023-03-04T09:50:02.905Z,9.17
2023-03-04T09:53:15.056Z,9.32
2023-03-04T09:56:18.464Z,9.52
2023-03-04T09:59:26.087Z,9.75
2023-03-04T10:02:44.777Z,10.61
2023-03-04T10:06:04.738Z,9.82
2023-03-04T10:09:23.183Z,9.74
2023-03-04T10:12:31.509Z,9.84
2023-03-04T10:15:39.958Z,10.18
2023-03-04T10:18:53.546Z,10.38
2023-03-04T10:21:57.758Z,10.25
2023-03-04T10:25:39.610Z,10.56
2023-03-04T10:28:43.163Z,10.54
2023-03-04T10:31:47.031Z,10.85
2023-03-04T10:34:51.126Z,11.01
2023-03-04T10:37:54.585Z,10.74
2023-03-04T10:40:58.825Z,10.95
2023-03-04T10:44:09.188Z,10.98
2023-03-04T10:47:14.481Z,11.20
2023-03-04T10:50:29.419Z,11.37
2023-03-04T10:53:38.915Z,11.06
2023-03-04T10:56:53.148Z,11.28
2023-03-04T10:59:57.413Z,11.41
2023-03-04T11:03:19.919Z,11.26
2023-03-04T11:06:23.645Z,10.95
2023-03-04T11:09:30.092Z,11.43
2023-03-04T11:12:35.084Z,11.15
2023-03-04T11:15:58.351Z,10.98
2023-03-04T11:19:16.315Z,11.20
2023-03-04T11:22:22.617Z,11.39
2023-03-04T11:25:39.313Z,11.65
2023-03-04T11:28:56.778Z,12.07
2023-03-04T11:32:01.622Z,12.25
2023-03-04T11:35:25.051Z,11.99
2023-03-04T11:38:47.092Z,11.95
2023-03-04T11:42:05.416Z,12.33
2023-03-04T11:45:45.271Z,12.61
2023-03-04T11:49:43.789Z,12.40
2023-03-04T11:53:13.529Z,12.03
2023-03-04T11:56:58.910Z,11.78
2023-03-04T12:00:23.454Z,12.09
2023-03-04T12:03:27.993Z,11.61
2023-03-04T12:06:42.030Z,11.68
2023-03-04T12:10:01.280Z,11.79
2023-03-04T12:13:13.411Z,11.81
2023-03-04T12:16:17.204Z,11.80
2023-03-04T12:19:52.176Z,12.11
2023-03-04T12:23:03.843Z,12.32
2023-03-04T12:26:17.024Z,12.14
2023-03-04T12:29:54.085Z,12.73
2023-03-04T12:33:16.162Z,12.87
2023-03-04T12:36:36.615Z,12.97
2023-03-04T12:40:17.433Z,12.88
2023-03-04T12:43:35.963Z,13.12
2023-03-04T12:47:00.746Z,12.85
2023-03-04T12:50:46.239Z,13.33
2023-03-04T12:53:56.762Z,13.70
2023-03-04T12:57:06.607Z,13.23
2023-03-04T13:00:20.672Z,12.88
2023-03-04T13:03:47.625Z,12.81
2023-03-04T13:06:53.498Z,12.88
2023-03-04T13:10:09.198Z,12.70
2023-03-04T13:13:35.020Z,12.42
2023-03-04T13:16:54.162Z,12.45
2023-03-04T13:20:18.075Z,12.68
2023-03-04T13:23:28.787Z,13.12
2023-03-04T13:26:34.403Z,13.14
2023-03-04T13:29:38.857Z,13.05
2023-03-04T13:32:44.225Z,13.08
2023-03-04T13:35:50.996Z,12.79
2023-03-04T13:39:00.716Z,12.93
2023-03-04T13:42:25.192Z,12.92
2023-03-04T13:45:35.609Z,12.86
2023-03-04T13:48:39.884Z,12.87
2023-03-04T13:51:46.161Z,13.11
2023-03-04T13:54:50.788Z,12.79
2023-03-04T13:57:53.931Z,12.89
2023-03-04T14:00:57.576Z,12.93
2023-03-04T14:04:11.532Z,12.45
2023-03-04T14:07:31.830Z,12.35
2023-03-04T14:10:35.481Z,12.05
2023-03-04T14:13:38.620Z,11.82
2023-03-04T14:16:51.315Z,11.78
2023-03-04T14:19:55.083Z,11.69
2023-03-04T14:23:01.050Z,11.31
2023-03-04T14:26:11.619Z,11.12
2023-03-04T14:29:29.474Z,11.15
2023-03-04T14:32:33.898Z,11.06
2023-03-04T14:35:39.073Z,10.94
2023-03-04T14:38:46.172Z,10.87
2023-03-04T14:41:54.152Z,10.91
2023-03-04T14:45:00.246Z,10.72
2023-03-04T14:48:07.195Z,10.67
2023-03-04T14:51:32.129Z,10.41
2023-03-04T14:54:42.058Z,10.09
2023-03-04T14:58:22.151Z,9.98
2023-03-04T15:01:33.347Z,9.80
2023-03-04T15:04:38.733Z,9.64
2023-03-04T15:07:43.307Z,9.53
2023-03-04T15:10:56.229Z,9.42
2023-03-04T15:14:01.580Z,9.32
2023-03-04T15:17:05.934Z,9.28
2023-03-04T15:20:12.966Z,9.19
2023-03-04T15:23:16.390Z,9.14
2023-03-04T15:26:21.114Z,9.04
2023-03-04T15:29:26.750Z,8.97
2023-03-04T15:32:30.538Z,8.92
2023-03-04T15:35:34.106Z,8.86
2023-03-04T15:38:37.937Z,8.77
2023-03-04T15:41:41.709Z,8.72
2023-03-04T15:44:46.033Z,8.63
2023-03-04T15:47:51.010Z,8.42
2023-03-04T15:51:01.220Z,8.25
2023-03-04T15:54:05.424Z,8.06
2023-03-04T15:57:24.964Z,7.95
2023-03-04T16:00:28.952Z,7.73
2023-03-04T16:03:33.578Z,7.66
2023-03-04T16:06:37.521Z,7.56
2023-03-04T16:09:41.378Z,7.45
2023-03-04T16:12:46.129Z,7.21
2023-03-04T16:15:50.753Z,7.21
2023-03-04T16:18:54.475Z,7.06
2023-03-04T16:21:58.973Z,6.92
2023-03-04T16:25:03.110Z,6.92
2023-03-04T16:28:07.818Z,6.73
2023-03-04T16:31:13.149Z,6.46
2023-03-04T16:34:17.223Z,6.54
2023-03-04T16:37:21.500Z,6.35
2023-03-04T16:40:28.765Z,6.32
2023-03-04T16:43:32.271Z,6.40
2023-03-04T16:46:37.246Z,6.23
2023-03-04T16:49:43.478Z,6.03
2023-03-04T16:52:49.960Z,6.15
2023-03-04T16:55:55.047Z,6.23
2023-03-04T16:59:00.676Z,6.26
2023-03-04T17:02:05.577Z,6.46
2023-03-04T17:05:20.699Z,6.42
2023-03-04T17:08:24.863Z,6.29
2023-03-04T17:11:28.819Z,6.08
2023-03-04T17:14:32.163Z,6.10
2023-03-04T17:17:36.495Z,6.17
2023-03-04T17:20:40.907Z,5.86
2023-03-04T17:23:45.526Z,5.68
2023-03-04T17:26:50.640Z,5.71
2023-03-04T17:29:56.135Z,5.59
2023-03-04T17:33:01.802Z,5.62
2023-03-04T17:36:09.337Z,5.63
2023-03-04T17:39:15.603Z,5.40
2023-03-04T17:42:21.368Z,5.58
2023-03-04T17:45:25.561Z,5.49
2023-03-04T17:48:30.786Z,5.47
2023-03-04T17:51:37.978Z,5.19
2023-03-04T17:54:42.255Z,5.19
2023-03-04T17:57:47.255Z,5.08
2023-03-04T18:00:57.030Z,4.99
2023-03-04T18:04:02.140Z,4.85
2023-03-04T18:07:06.406Z,4.70
2023-03-04T18:10:13.236Z,4.48
2023-03-04T18:13:17.388Z,4.47
2023-03-04T18:16:28.227Z,4.43
2023-03-04T18:19:32.833Z,4.38
2023-03-04T18:22:37.469Z,4.21
2023-03-04T18:25:42.217Z,4.13
2023-03-04T18:28:48.342Z,4.09
2023-03-04T18:31:52.875Z,3.63
2023-03-04T18:34:58.375Z,3.85
2023-03-04T18:38:03.962Z,3.76
2023-03-04T18:41:12.782Z,3.66
2023-03-04T18:44:17.358Z,3.60
2023-03-04T18:47:22.832Z,3.53
2023-03-04T18:50:28.218Z,3.49
2023-03-04T18:53:33.270Z,3.46
2023-03-04T18:56:48.059Z,3.49
2023-03-04T19:00:01.374Z,3.34
2023-03-04T19:03:11.558Z,3.36
2023-03-04T19:06:16.449Z,3.31
2023-03-04T19:09:20.885Z,3.37
2023-03-04T19:12:26.176Z,3.23
2023-03-04T19:15:30.413Z,3.17
2023-03-04T19:18:34.866Z,3.06
2023-03-04T19:21:39.372Z,3.18
2023-03-04T19:24:43.975Z,3.08
2023-03-04T19:27:48.051Z,3.10
2023-03-04T19:30:54.424Z,2.90
2023-03-04T19:33:59.167Z,2.93
2023-03-04T19:37:05.877Z,2.80
2023-03-04T19:40:10.853Z,2.76
2023-03-04T19:43:15.776Z,2.67
2023-03-04T19:46:21.102Z,2.56
2023-03-04T19:49:26.347Z,2.42
2023-03-04T19:52:35.393Z,2.28
2023-03-04T19:55:40.432Z,2.12
2023-03-04T19:58:49.350Z,1.95
2023-03-04T20:01:55.339Z,2.03
2023-03-04T20:05:03.549Z,1.88
2023-03-04T20:08:09.505Z,1.90
2023-03-04T20:11:15.980Z,1.98
2023-03-04T20:14:20.797Z,1.71
2023-03-04T20:17:25.423Z,1.77
2023-03-04T20:20:29.862Z,1.60
2023-03-04T20:23:35.366Z,1.63
2023-03-04T20:26:40.552Z,1.33
2023-03-04T20:29:45.760Z,1.34
2023-03-04T20:32:50.277Z,1.37
2023-03-04T20:35:55.135Z,1.27
2023-03-04T20:39:03.325Z,1.54
2023-03-04T20:42:10.472Z,1.41
2023-03-04T20:45:15.007Z,1.29
2023-03-04T20:48:19.910Z,1.06
2023-03-04T20:51:26.118Z,0.97
2023-03-04T20:54:32.352Z,0.88
2023-03-04T20:57:36.718Z,0.95
2023-03-04T21:00:41.916Z,0.88
2023-03-04T21:03:46.611Z,0.84
2023-03-04T21:06:57.537Z,0.79
2023-03-04T21:10:02.840Z,0.80
2023-03-04T21:13:12.061Z,1.00
2023-03-04T21:16:18.036Z,0.91
2023-03-04T21:19:27.736Z,0.89
2023-03-04T21:22:31.724Z,0.92
2023-03-04T21:25:37.257Z,1.48
2023-03-04T21:28:42.201Z,1.55
2023-03-04T21:32:12.980Z,1.12
2023-03-04T21:35:21.066Z,1.68
2023-03-04T21:38:26.734Z,1.80
2023-03-04T21:41:31.596Z,2.06
2023-03-04T21:44:48.678Z,2.19
2023-03-04T21:47:53.113Z,2.27
2023-03-04T21:51:02.421Z,2.16
2023-03-04T21:54:07.785Z,2.38
2023-03-04T21:57:11.618Z,2.38
2023-03-04T22:00:16.200Z,2.48
2023-03-04T22:03:21.230Z,2.50
2023-03-04T22:06:27.427Z,2.43
2023-03-04T22:09:59.598Z,2.42
2023-03-04T22:13:03.024Z,2.52
2023-03-04T22:16:08.764Z,2.25
2023-03-04T22:19:12.920Z,2.44
2023-03-04T22:22:19.173Z,2.56
2023-03-04T22:25:23.402Z,2.44
2023-03-04T22:28:29.032Z,2.58
2023-03-04T22:31:37.341Z,2.49
2023-03-04T22:34:41.030Z,2.33
2023-03-04T22:37:45.920Z,2.49
2023-03-04T22:40:50.178Z,2.51
2023-03-04T22:43:53.958Z,2.49
2023-03-04T22:46:57.487Z,2.28
2023-03-04T22:50:00.506Z,2.20
2023-03-04T22:53:06.841Z,2.36
2023-03-04T22:56:11.200Z,2.36
2023-03-04T22:59:14.760Z,2.28
2023-03-04T23:02:17.901Z,2.28
2023-03-04T23:05:21.909Z,2.36
2023-03-04T23:08:25.264Z,2.19
2023-03-04T23:11:35.515Z,2.28
2023-03-04T23:14:40.083Z,2.35
2023-03-04T23:17:44.338Z,2.28
2023-03-04T23:20:47.902Z,2.49
2023-03-04T23:23:52.373Z,2.24
2023-03-04T23:26:55.884Z,2.10
2023-03-04T23:30:00.236Z,2.05
2023-03-04T23:33:03.846Z,1.91
2023-03-04T23:36:09.839Z,1.76
2023-03-04T23:39:13.305Z,1.80
2023-03-04T23:42:17.291Z,1.75
2023-03-04T23:45:20.636Z,1.81
2023-03-04T23:48:25.367Z,1.76
2023-03-04T23:51:30.285Z,1.51
2023-03-04T23:54:33.857Z,1.38
2023-03-04T23:57:37.795Z,1.41
